Time;durP1;ratioP1;P1;durP2;ratioP2;P2;SDS_P1;SDS_P2;PMS_P1;PMS_P2;Temp;Humidity;BMP_temperature;BMP_pressure;BME280_temperature;BME280_humidity;BME280_pressure;Samples;Min_cycle;Max_cycle;Signal;HPM_P1;HPM_P2
2022/04/24 00:01:06;;;;;;;10.45;6.60;;;;;;;6.84;73.94;93027.38;5112583;28;20027;-37
2022/04/24 00:03:32;;;;;;;11.55;6.32;;;;;;;6.94;73.54;93027.63;5112343;28;20027;-37
2022/04/24 00:05:58;;;;;;;10.13;5.20;;;;;;;6.82;73.72;93025.16;5112943;28;20027;-38
2022/04/24 00:08:23;;;;;;;9.20;6.18;;;;;;;6.74;74.73;93020.84;5113224;28;20076;-37
2022/04/24 00:10:49;;;;;;;16.98;8.48;;;;;;;6.89;73.97;93026.50;5113039;28;20054;-38
2022/04/24 00:13:14;;;;;;;13.77;8.05;;;;;;;6.93;73.81;93020.69;5109242;28;20089;-38
2022/04/24 00:15:40;;;;;;;15.90;9.68;;;;;;;6.70;74.44;93020.47;5112575;28;20134;-37
2022/04/24 00:18:06;;;;;;;16.40;9.82;;;;;;;6.57;74.83;93026.00;5112992;28;20016;-37
2022/04/24 00:20:31;;;;;;;16.20;8.98;;;;;;;6.42;75.76;93017.59;5112477;28;20443;-38
2022/04/24 00:22:56;;;;;;;13.93;8.35;;;;;;;6.35;76.16;93015.50;5112582;28;20051;-38
2022/04/24 00:25:22;;;;;;;14.07;8.27;;;;;;;6.20;76.17;93018.81;5112453;28;20069;-38
2022/04/24 00:27:47;;;;;;;11.57;7.47;;;;;;;6.08;76.25;93018.34;5112817;28;20027;-38
2022/04/24 00:30:13;;;;;;;9.95;6.55;;;;;;;6.13;76.04;93013.97;5112729;28;20377;-38
2022/04/24 00:32:38;;;;;;;10.73;7.15;;;;;;;6.05;76.03;93024.13;5112656;28;20020;-37
2022/04/24 00:35:04;;;;;;;7.03;4.45;;;;;;;5.92;75.42;93026.88;5112413;28;20081;-37
2022/04/24 00:37:30;;;;;;;5.82;3.15;;;;;;;6.07;75.09;93022.34;5098437;28;20031;-38
2022/04/24 00:39:56;;;;;;;3.67;3.20;;;;;;;6.08;73.99;93021.09;5091916;28;20435;-38
2022/04/24 00:42:21;;;;;;;7.03;3.90;;;;;;;6.09;74.22;93024.53;5091716;28;20103;-38
2022/04/24 00:44:46;;;;;;;7.35;4.90;;;;;;;6.29;74.23;93025.88;5092104;28;20047;-38
2022/04/24 00:47:20;;;;;;;13.93;6.10;;;;;;;6.39;73.03;93018.69;5091769;28;20074;-38
2022/04/24 00:49:46;;;;;;;17.20;7.72;;;;;;;6.45;72.78;93033.00;5090907;28;20032;-38
2022/04/24 00:52:12;;;;;;;19.90;11.13;;;;;;;6.42;72.74;93023.84;5091628;28;20084;-37
2022/04/24 00:54:38;;;;;;;18.98;9.73;;;;;;;6.35;73.13;93024.47;5091506;28;20027;-37
2022/04/24 00:57:08;;;;;;;14.93;8.27;;;;;;;6.13;73.32;93027.69;5091547;28;20095;-37
2022/04/24 00:59:34;;;;;;;9.60;6.32;;;;;;;5.92;74.42;93027.63;5091571;28;20016;-37
2022/04/24 01:02:02;;;;;;;10.77;6.10;;;;;;;5.91;74.70;93019.94;5091412;28;20028;-37
2022/04/24 01:04:28;;;;;;;15.15;9.18;;;;;;;5.97;74.44;93026.78;5091468;28;20032;-37
2022/04/24 01:06:53;;;;;;;12.90;7.22;;;;;;;5.94;74.55;93030.56;5090191;28;20093;-37
2022/04/24 01:09:21;;;;;;;10.35;8.10;;;;;;;5.80;74.64;93011.91;5089975;28;20028;-36
2022/04/24 01:11:49;;;;;;;15.75;11.77;;;;;;;5.79;74.53;93026.88;5091586;28;20127;-36
2022/04/24 01:14:16;;;;;;;15.60;9.68;;;;;;;5.87;75.13;93020.25;5093136;28;20020;-36
2022/04/24 01:16:42;;;;;;;13.52;10.02;;;;;;;5.87;75.10;93014.03;5091010;28;20052;-37
2022/04/24 01:19:07;;;;;;;12.98;8.50;;;;;;;5.91;74.70;93026.13;5091130;28;20505;-38
2022/04/24 01:21:33;;;;;;;11.20;8.90;;;;;;;5.86;74.87;93029.00;5091384;28;20020;-38
2022/04/24 01:23:59;;;;;;;13.95;9.20;;;;;;;5.83;75.10;93022.53;5091317;28;20032;-39
2022/04/24 01:26:24;;;;;;;14.13;9.07;;;;;;;5.91;74.88;93014.47;5091148;28;20084;-38
2022/04/24 01:28:50;;;;;;;16.83;10.10;;;;;;;5.89;75.01;93031.41;5091110;28;20082;-41
2022/04/24 01:31:15;;;;;;;12.40;7.28;;;;;;;5.64;76.06;93041.09;5091218;28;20032;-41
2022/04/24 01:33:41;;;;;;;9.07;6.15;;;;;;;5.59;77.39;93038.47;5090924;28;20028;-39
2022/04/24 01:36:06;;;;;;;8.88;6.75;;;;;;;5.59;76.87;93041.94;5091148;28;20024;-40
2022/04/24 01:38:33;;;;;;;6.30;5.30;;;;;;;5.59;77.23;93038.47;5090768;28;20081;-41
2022/04/24 01:40:58;;;;;;;11.85;5.82;;;;;;;5.59;76.63;93027.53;5091026;28;20024;-40
2022/04/24 01:43:24;;;;;;;9.18;5.35;;;;;;;5.68;76.24;93043.50;5089504;28;20546;-41
2022/04/24 01:45:49;;;;;;;4.95;3.30;;;;;;;5.33;75.73;93047.38;5090628;28;20506;-41
2022/04/24 01:48:15;;;;;;;8.32;3.97;;;;;;;5.27;75.03;93041.28;5090906;28;20500;-40
2022/04/24 01:50:40;;;;;;;7.97;4.43;;;;;;;5.60;73.79;93040.69;5090581;28;20028;-42
2022/04/24 01:53:05;;;;;;;12.93;4.18;;;;;;;5.68;72.96;93038.78;5089392;28;20407;-39
2022/04/24 01:55:31;;;;;;;4.05;3.38;;;;;;;5.76;72.71;93052.59;5090842;28;20024;-42
2022/04/24 01:57:56;;;;;;;3.35;2.70;;;;;;;5.55;73.02;93036.03;5090639;28;20565;-40
2022/04/24 02:00:22;;;;;;;4.78;3.60;;;;;;;5.67;73.82;93061.22;5090505;28;20524;-40
2022/04/24 02:02:48;;;;;;;8.68;3.80;;;;;;;5.52;73.38;93059.00;5090568;28;20028;-38
2022/04/24 02:05:13;;;;;;;5.00;3.42;;;;;;;5.49;73.99;93062.78;5090388;28;20481;-40
2022/04/24 02:07:39;;;;;;;6.03;3.80;;;;;;;5.33;74.28;93061.81;5090690;28;20125;-39
2022/04/24 02:10:05;;;;;;;5.20;3.85;;;;;;;5.28;74.92;93059.19;5090726;28;20500;-39
2022/04/24 02:12:30;;;;;;;4.38;3.33;;;;;;;5.34;74.90;93054.34;5090627;28;20020;-39
2022/04/24 02:14:56;;;;;;;6.40;3.60;;;;;;;5.16;75.69;93052.41;5093047;28;20048;-39
2022/04/24 02:17:22;;;;;;;6.80;2.42;;;;;;;5.35;75.02;93058.53;5090483;28;20481;-39
2022/04/24 02:19:47;;;;;;;6.25;3.35;;;;;;;5.45;74.84;93056.88;5089302;28;20028;-39
2022/04/24 02:22:13;;;;;;;11.30;4.80;;;;;;;5.32;74.51;93038.47;5090104;28;20107;-39
2022/04/24 02:24:38;;;;;;;12.65;6.32;;;;;;;5.59;73.93;93055.63;5089695;28;20035;-39
2022/04/24 02:27:04;;;;;;;20.05;8.48;;;;;;;5.48;73.31;93055.81;5090429;28;20024;-38
2022/04/24 02:29:29;;;;;;;15.52;7.80;;;;;;;5.47;72.58;93054.38;5090388;28;20042;-39
2022/04/24 02:31:55;;;;;;;14.77;7.00;;;;;;;5.42;73.27;93051.72;5090199;28;20035;-39
2022/04/24 02:34:20;;;;;;;16.10;7.25;;;;;;;5.30;73.81;93051.19;5108650;28;20462;-39
2022/04/24 02:36:46;;;;;;;19.40;8.30;;;;;;;5.41;73.50;93056.47;5110462;28;20032;-39
2022/04/24 02:39:11;;;;;;;18.00;9.55;;;;;;;5.32;73.19;93054.88;5110240;28;20023;-39
2022/04/24 02:41:37;;;;;;;10.90;5.30;;;;;;;5.03;74.34;93055.84;5110322;28;20077;-39
2022/04/24 02:44:03;;;;;;;11.88;6.68;;;;;;;5.13;74.26;93056.94;5110323;28;20077;-39
2022/04/24 02:46:28;;;;;;;14.80;6.28;;;;;;;4.88;74.60;93061.06;5110357;28;20026;-39
2022/04/24 02:48:54;;;;;;;9.07;5.20;;;;;;;4.71;75.06;93062.59;5110516;28;20015;-39
2022/04/24 02:51:19;;;;;;;8.27;5.10;;;;;;;4.63;74.97;93057.00;5110441;28;20053;-38
2022/04/24 02:53:45;;;;;;;12.00;5.35;;;;;;;4.52;75.18;93057.91;5110583;28;20007;-38
2022/04/24 02:56:10;;;;;;;10.60;7.18;;;;;;;4.39;76.39;93057.84;5110455;28;20024;-38
2022/04/24 02:58:38;;;;;;;9.77;5.32;;;;;;;4.29;77.15;93064.91;5110283;28;20409;-39
2022/04/24 03:01:04;;;;;;;9.57;4.88;;;;;;;4.41;76.91;93063.53;5110421;28;20176;-39
2022/04/24 03:03:29;;;;;;;13.60;6.00;;;;;;;4.61;76.06;93071.16;5108909;28;20572;-39
2022/04/24 03:05:55;;;;;;;13.00;5.80;;;;;;;4.76;74.75;93068.00;5110410;28;20102;-39
2022/04/24 03:08:21;;;;;;;10.10;5.63;;;;;;;4.62;75.30;93060.97;5109431;28;20024;-38
2022/04/24 03:10:46;;;;;;;7.95;5.20;;;;;;;4.64;74.97;93063.94;5110105;28;20024;-38
2022/04/24 03:13:12;;;;;;;10.70;5.18;;;;;;;4.67;75.10;93064.88;5103750;28;20142;-38
2022/04/24 03:15:38;;;;;;;10.45;6.97;;;;;;;4.67;75.08;93062.16;5089761;28;20048;-38
2022/04/24 03:18:04;;;;;;;9.80;5.35;;;;;;;4.77;74.93;93071.44;5089662;28;20032;-38
2022/04/24 03:20:30;;;;;;;10.15;5.65;;;;;;;4.82;74.88;93068.63;5089660;28;20502;-38
2022/04/24 03:22:56;;;;;;;12.00;6.35;;;;;;;4.75;74.36;93061.03;5089551;28;20063;-37
2022/04/24 03:25:21;;;;;;;12.63;6.18;;;;;;;4.79;74.92;93071.66;5089606;28;20103;-36
2022/04/24 03:27:46;;;;;;;19.20;6.82;;;;;;;4.77;75.03;93071.44;5089956;28;20024;-37
2022/04/24 03:30:12;;;;;;;13.63;6.07;;;;;;;4.72;75.82;93075.72;5104884;28;20047;-37
2022/04/24 03:32:38;;;;;;;11.80;5.85;;;;;;;4.72;75.29;93077.75;5110250;28;20019;-37
2022/04/24 03:35:06;;;;;;;6.97;4.28;;;;;;;4.49;74.14;93072.59;5109840;28;20390;-38
2022/04/24 03:37:32;;;;;;;10.48;7.57;;;;;;;4.61;73.52;93084.84;5111262;28;20023;-38
2022/04/24 03:39:57;;;;;;;11.55;6.15;;;;;;;4.17;74.43;93060.88;5113846;28;20023;-37
2022/04/24 03:42:25;;;;;;;17.13;9.52;;;;;;;4.35;75.60;93081.97;5113668;28;20032;-38
2022/04/24 03:44:52;;;;;;;21.02;8.90;;;;;;;4.65;75.09;93086.53;5112630;28;20519;-37
2022/04/24 03:47:18;;;;;;;22.92;9.48;;;;;;;4.57;75.57;93089.88;5113660;28;20051;-39
2022/04/24 03:49:44;;;;;;;24.17;9.05;;;;;;;4.56;75.28;93090.41;5113605;28;20043;-38
2022/04/24 03:52:11;;;;;;;14.05;8.75;;;;;;;4.50;75.55;93087.00;5113172;28;20023;-39
2022/04/24 03:54:36;;;;;;;11.70;8.20;;;;;;;4.63;75.15;93096.00;5113390;28;20015;-39
2022/04/24 03:57:02;;;;;;;12.93;8.30;;;;;;;4.73;74.54;93101.84;5113259;28;20042;-38
2022/04/24 03:59:29;;;;;;;15.35;9.32;;;;;;;4.85;74.23;93105.16;5113144;27;20500;-38
2022/04/24 04:01:54;;;;;;;16.42;8.93;;;;;;;4.86;74.22;93112.09;5113319;28;20036;-38
2022/04/24 04:04:20;;;;;;;17.35;7.82;;;;;;;4.80;74.50;93111.44;5113004;28;20409;-39
2022/04/24 04:06:45;;;;;;;13.88;7.57;;;;;;;4.72;74.45;93110.56;5110407;28;20099;-40
2022/04/24 04:09:10;;;;;;;20.35;8.43;;;;;;;4.75;74.53;93107.50;5097196;28;20634;-40
2022/04/24 04:11:36;;;;;;;14.27;7.97;;;;;;;4.59;75.30;93117.44;5092416;28;20024;-39
2022/04/24 04:14:01;;;;;;;11.55;7.15;;;;;;;4.68;74.86;93119.03;5095133;28;20028;-39
2022/04/24 04:16:27;;;;;;;23.08;13.70;;;;;;;4.75;74.10;93115.72;5092211;28;20044;-40
2022/04/24 04:18:52;;;;;;;23.77;13.25;;;;;;;4.63;74.84;93115.13;5092202;28;20023;-39
2022/04/24 04:21:18;;;;;;;40.95;23.88;;;;;;;4.55;75.48;93113.50;5110130;28;20103;-39
2022/04/24 04:23:43;;;;;;;37.95;20.83;;;;;;;4.82;75.04;93123.34;5112834;28;20546;-40
2022/04/24 04:26:09;;;;;;;33.05;20.60;;;;;;;5.31;75.01;93130.03;5099413;28;20563;-40
2022/04/24 04:28:35;;;;;;;30.02;19.83;;;;;;;5.84;72.88;93135.63;5092290;28;20051;-40
2022/04/24 04:31:00;;;;;;;44.25;23.50;;;;;;;6.24;71.48;93128.16;5092006;28;20498;-40
2022/04/24 04:33:26;;;;;;;59.15;34.10;;;;;;;6.51;69.37;93129.59;5092110;28;20091;-41
2022/04/24 04:35:51;;;;;;;55.72;32.30;;;;;;;6.53;68.55;93130.56;5091925;28;20082;-40
2022/04/24 04:38:16;;;;;;;48.15;28.73;;;;;;;7.10;67.32;93117.09;5092190;28;20036;-40
2022/04/24 04:40:42;;;;;;;43.15;26.52;;;;;;;7.85;64.19;93114.97;5090374;28;20525;-39
2022/04/24 04:43:07;;;;;;;31.00;21.08;;;;;;;8.54;63.02;93113.38;5091904;28;20020;-38
2022/04/24 04:45:33;;;;;;;31.42;21.42;;;;;;;8.62;61.36;93128.66;5092078;28;20012;-39
2022/04/24 04:47:58;;;;;;;38.42;26.13;;;;;;;8.68;62.04;93118.22;5102199;28;20084;-39
2022/04/24 04:50:24;;;;;;;38.15;26.15;;;;;;;8.45;63.46;93111.88;5112227;28;20024;-39
2022/04/24 04:52:49;;;;;;;37.75;26.80;;;;;;;8.52;63.53;93124.19;5112279;28;20056;-40
2022/04/24 04:55:15;;;;;;;26.38;17.77;;;;;;;8.60;64.24;93122.25;5111581;28;20019;-40
2022/04/24 04:57:40;;;;;;;29.85;19.35;;;;;;;8.68;64.51;93120.25;5111958;28;20026;-39
2022/04/24 05:00:07;;;;;;;27.58;19.67;;;;;;;8.70;64.57;93114.94;5112201;28;20023;-39
2022/04/24 05:02:37;;;;;;;20.83;14.40;;;;;;;8.78;64.96;93112.94;5111758;28;20020;-39
2022/04/24 05:05:04;;;;;;;21.40;14.48;;;;;;;8.68;66.26;93112.72;5112048;28;20036;-39
2022/04/24 05:07:29;;;;;;;18.40;11.13;;;;;;;8.70;68.07;93109.41;5110472;28;20535;-40
2022/04/24 05:09:55;;;;;;;11.10;6.10;;;;;;;8.63;67.86;93116.38;5111773;28;20020;-39
2022/04/24 05:12:25;;;;;;;8.15;6.05;;;;;;;8.65;68.82;93113.06;5111424;28;20026;-40
2022/04/24 05:14:50;;;;;;;6.18;5.07;;;;;;;8.70;68.81;93115.66;5094739;28;20534;-39
2022/04/24 05:17:16;;;;;;;6.22;4.95;;;;;;;8.63;69.29;93113.63;5091257;28;20027;-39
2022/04/24 05:19:41;;;;;;;12.30;7.97;;;;;;;8.83;69.98;93110.03;5091157;28;20027;-39
2022/04/24 05:22:07;;;;;;;17.42;11.50;;;;;;;8.91;70.23;93108.03;5101557;28;20081;-39
2022/04/24 05:24:32;;;;;;;8.30;2.85;;;;;;;8.96;71.29;93103.63;5110345;28;20047;-39
2022/04/24 05:27:00;;;;;;;8.38;2.85;;;;;;;8.97;71.92;93102.34;5111825;28;20023;-39
2022/04/24 05:29:25;;;;;;;7.65;5.85;;;;;;;9.02;72.05;93099.44;5111377;28;20126;-39
2022/04/24 05:31:51;;;;;;;13.23;7.35;;;;;;;9.15;72.51;93109.56;5110888;28;20047;-39
2022/04/24 05:34:16;;;;;;;22.50;13.18;;;;;;;9.38;73.23;93102.06;5111639;28;20489;-39
2022/04/24 05:36:41;;;;;;;13.93;8.57;;;;;;;9.93;72.75;93108.53;5109909;28;20016;-40
2022/04/24 05:39:07;;;;;;;14.07;8.20;;;;;;;10.68;69.82;93100.66;5109540;28;20019;-39
2022/04/24 05:41:32;;;;;;;12.30;8.35;;;;;;;11.28;67.64;93103.13;5106313;28;20031;-40
2022/04/24 05:43:58;;;;;;;7.38;3.70;;;;;;;11.68;66.52;93101.06;5090765;28;20020;-40
2022/04/24 05:46:23;;;;;;;5.20;4.70;;;;;;;12.10;64.54;93093.53;5104047;28;20031;-40
2022/04/24 05:48:49;;;;;;;5.80;3.28;;;;;;;12.53;62.36;93094.19;5110837;28;20027;-40
2022/04/24 05:51:14;;;;;;;3.25;2.40;;;;;;;13.00;61.42;93091.06;5108267;28;20076;-40
2022/04/24 05:53:40;;;;;;;5.63;1.80;;;;;;;13.93;58.41;93098.28;5108664;28;20019;-40
2022/04/24 05:56:05;;;;;;;12.30;4.85;;;;;;;14.72;57.08;93104.91;5108705;28;20394;-40
2022/04/24 05:58:31;;;;;;;13.73;8.35;;;;;;;15.35;54.03;93099.00;5104558;28;20096;-40
2022/04/24 06:00:56;;;;;;;20.08;7.68;;;;;;;16.15;52.90;93103.91;5100255;28;20114;-40
2022/04/24 06:03:22;;;;;;;16.65;6.75;;;;;;;16.57;51.62;93081.69;5108453;28;20027;-40
2022/04/24 06:05:48;;;;;;;8.02;4.57;;;;;;;16.93;50.85;93097.28;5108928;28;20031;-41
2022/04/24 06:08:14;;;;;;;12.35;5.18;;;;;;;17.21;50.34;93091.47;5108733;28;20609;-40
2022/04/24 06:10:40;;;;;;;14.02;5.35;;;;;;;17.29;50.64;93094.03;5098752;28;20023;-41
2022/04/24 06:13:05;;;;;;;10.98;6.40;;;;;;;17.25;49.27;93091.00;5105889;28;20095;-42
2022/04/24 06:15:31;;;;;;;10.63;6.43;;;;;;;18.03;48.12;93084.75;5094189;28;20055;-41
2022/04/24 06:17:58;;;;;;;9.25;6.32;;;;;;;19.10;45.43;93073.53;5108493;28;20459;-41
2022/04/24 06:20:24;;;;;;;15.50;7.53;;;;;;;19.79;44.52;93081.63;5101571;28;20618;-40
2022/04/24 06:22:52;;;;;;;7.25;4.90;;;;;;;20.32;41.79;93074.69;5101708;28;20103;-40
2022/04/24 06:25:19;;;;;;;7.50;4.10;;;;;;;21.25;41.92;93067.41;5100708;28;20076;-45
2022/04/24 06:27:46;;;;;;;7.25;4.55;;;;;;;22.23;38.27;93063.66;5097453;28;20033;-41
2022/04/24 06:30:12;;;;;;;5.50;3.85;;;;;;;22.83;37.91;93068.41;5092687;28;20110;-41
2022/04/24 06:32:39;;;;;;;7.22;4.40;;;;;;;23.10;37.60;93061.78;5101754;28;20028;-38
2022/04/24 06:35:06;;;;;;;7.90;4.70;;;;;;;23.27;35.87;93066.72;5092661;28;20474;-38
2022/04/24 06:37:31;;;;;;;4.05;3.28;;;;;;;23.35;36.74;93059.34;5088258;28;20054;-38
2022/04/24 06:39:56;;;;;;;5.65;2.58;;;;;;;22.97;34.60;93059.84;5087536;28;20020;-41
2022/04/24 06:42:22;;;;;;;12.27;3.55;;;;;;;22.15;36.36;93066.09;5086518;28;20024;-41
2022/04/24 06:44:48;;;;;;;8.55;3.60;;;;;;;23.11;36.85;93063.22;5087614;28;20501;-41
2022/04/24 06:47:13;;;;;;;6.03;4.18;;;;;;;24.45;33.88;93064.31;5087643;28;20028;-44
2022/04/24 06:49:39;;;;;;;6.45;2.42;;;;;;;24.34;31.98;93063.22;5097031;28;20084;-39
2022/04/24 06:52:05;;;;;;;4.18;1.63;;;;;;;24.47;31.44;93067.91;5107789;28;20548;-40
2022/04/24 06:54:30;;;;;;;4.53;1.83;;;;;;;25.02;30.84;93064.97;5108067;28;20028;-41
2022/04/24 06:57:01;;;;;;;5.65;1.95;;;;;;;24.95;31.42;93068.25;5096423;28;20028;-40
2022/04/24 06:59:27;;;;;;;5.80;2.40;;;;;;;26.20;30.01;93071.00;5086058;28;20540;-40
2022/04/24 07:01:52;;;;;;;6.00;2.22;;;;;;;27.58;27.80;93061.34;5086839;28;20060;-42
2022/04/24 07:04:18;;;;;;;5.22;1.50;;;;;;;26.70;28.29;93054.00;5089204;28;20085;-39
2022/04/24 07:06:43;;;;;;;5.45;1.55;;;;;;;27.82;26.79;93059.09;5108975;28;20492;-39
2022/04/24 07:09:10;;;;;;;4.50;1.50;;;;;;;27.46;27.03;93056.09;5108674;28;20052;-39
2022/04/24 07:11:36;;;;;;;3.22;1.60;;;;;;;26.99;26.85;93064.75;5109670;28;20160;-39
2022/04/24 07:14:01;;;;;;;5.07;1.50;;;;;;;26.92;28.16;93058.19;5098605;28;20486;-39
2022/04/24 07:16:27;;;;;;;2.95;1.48;;;;;;;27.40;27.06;93055.94;5090543;28;20051;-42
2022/04/24 07:18:53;;;;;;;5.72;2.15;;;;;;;28.40;25.41;93062.56;5105021;28;20028;-40
2022/04/24 07:21:18;;;;;;;3.15;1.40;;;;;;;28.90;24.84;93045.88;5111571;28;20520;-42
2022/04/24 07:23:43;;;;;;;5.10;1.98;;;;;;;28.51;25.22;93047.91;5111789;27;20045;-40
2022/04/24 07:26:09;;;;;;;5.85;1.92;;;;;;;29.52;24.26;93046.34;5112978;28;20447;-40
2022/04/24 07:28:35;;;;;;;3.50;1.90;;;;;;;29.04;23.20;93046.84;5112894;28;20421;-40
2022/04/24 07:31:01;;;;;;;5.53;2.03;;;;;;;27.65;25.16;93046.66;5113039;28;20019;-39
2022/04/24 07:33:27;;;;;;;8.07;1.88;;;;;;;27.18;26.45;93051.81;5113769;28;20030;-41
2022/04/24 07:35:52;;;;;;;7.18;2.08;;;;;;;27.46;25.77;93046.88;5113523;28;20031;-41
2022/04/24 07:38:18;;;;;;;5.40;1.80;;;;;;;27.66;26.17;93047.34;5113568;28;20023;-40
2022/04/24 07:40:43;;;;;;;7.15;2.33;;;;;;;27.62;25.69;93041.59;5113555;28;20026;-40
2022/04/24 07:43:10;;;;;;;6.18;1.70;;;;;;;28.12;24.79;93034.28;5113446;28;20046;-39
2022/04/24 07:45:41;;;;;;;2.42;1.38;;;;;;;27.39;25.63;93046.00;5113488;28;20023;-39
2022/04/24 07:48:09;;;;;;;2.97;1.40;;;;;;;27.65;25.61;93052.34;5113358;27;20103;-39
2022/04/24 07:50:41;;;;;;;14.07;6.85;;;;;;;28.16;24.52;93056.34;5113561;28;20030;-39
2022/04/24 07:53:07;;;;;;;18.65;12.80;;;;;;;27.62;25.26;93041.59;5113288;28;20024;-39
2022/04/24 07:55:33;;;;;;;16.73;11.23;;;;;;;27.95;26.45;93043.81;5113393;28;20098;-39
2022/04/24 07:57:59;;;;;;;9.82;7.57;;;;;;;27.68;24.66;93014.09;5113264;28;20536;-39
2022/04/24 08:00:28;;;;;;;5.07;2.22;;;;;;;27.60;25.26;93047.94;5113113;28;20081;-38
2022/04/24 08:02:57;;;;;;;4.75;2.25;;;;;;;27.28;25.29;93044.28;5112924;28;20102;-39
2022/04/24 08:05:26;;;;;;;7.07;1.60;;;;;;;27.54;25.27;93035.72;5113025;28;20027;-40
2022/04/24 08:07:53;;;;;;;4.50;1.42;;;;;;;27.70;25.00;93041.78;5112994;28;20035;-39
2022/04/24 08:10:19;;;;;;;3.85;1.60;;;;;;;27.49;26.03;93042.69;5113268;28;20389;-39
2022/04/24 08:12:45;;;;;;;3.80;1.52;;;;;;;28.33;24.53;93035.44;5110597;28;20023;-39
2022/04/24 08:15:11;;;;;;;5.60;1.10;;;;;;;28.19;24.40;93027.34;5107072;28;20047;-42
2022/04/24 08:17:36;;;;;;;5.38;2.90;;;;;;;28.38;24.41;93028.47;5112812;28;20429;-42
2022/04/24 08:20:04;;;;;;;3.30;1.30;;;;;;;28.84;23.09;93031.56;5113081;28;20030;-42
2022/04/24 08:22:57;;;;;;;2.00;1.33;;;;;;;28.91;21.92;93024.59;5112227;28;20059;-43
2022/04/24 08:25:24;;;;;;;4.90;1.33;;;;;;;28.32;22.64;93026.22;5109084;28;20421;-43
2022/04/24 08:27:51;;;;;;;6.10;1.80;;;;;;;28.36;23.16;93025.56;5112472;27;20077;-41
2022/04/24 08:30:18;;;;;;;4.68;1.45;;;;;;;28.24;23.70;93011.84;5106081;28;20035;-41
2022/04/24 08:32:44;;;;;;;26.67;15.05;;;;;;;28.30;23.13;93009.16;5100288;28;20027;-43
2022/04/24 08:35:12;;;;;;;32.33;15.00;;;;;;;28.83;24.48;93013.78;5100183;28;20077;-42
2022/04/24 08:37:38;;;;;;;5.43;2.27;;;;;;;29.10;23.35;93007.19;5102323;28;20101;-47
2022/04/24 08:40:05;;;;;;;7.55;3.78;;;;;;;29.45;22.12;93002.84;5112481;28;20489;-44
2022/04/24 08:42:32;;;;;;;5.38;3.22;;;;;;;29.94;22.62;93007.19;5112371;28;20020;-42
2022/04/24 08:44:58;;;;;;;4.22;1.73;;;;;;;30.21;22.49;93011.88;5112518;28;20055;-45
2022/04/24 08:47:24;;;;;;;3.25;1.33;;;;;;;30.30;21.89;93015.56;5112476;28;20531;-44
2022/04/24 08:49:55;;;;;;;4.78;1.65;;;;;;;31.43;20.67;93004.09;5112022;28;20030;-44
2022/04/24 08:52:22;;;;;;;2.58;1.17;;;;;;;31.98;20.14;92996.00;5106111;27;20115;-43
2022/04/24 08:54:49;;;;;;;2.38;1.20;;;;;;;31.87;19.40;92988.75;5108064;28;20077;-44
2022/04/24 08:57:14;;;;;;;4.03;1.50;;;;;;;31.44;19.70;93004.84;5105792;28;20031;-44
2022/04/24 08:59:41;;;;;;;4.75;1.20;;;;;;;31.29;20.39;92994.69;5110880;28;20102;-43
2022/04/24 09:02:06;;;;;;;1.70;1.13;;;;;;;31.13;20.22;93003.06;5108653;28;20511;-43
2022/04/24 09:04:35;;;;;;;5.22;1.25;;;;;;;30.56;21.66;93004.50;5110175;28;20090;-43
2022/04/24 09:07:01;;;;;;;;;;;;;;;31.00;21.16;92990.81;5111215;28;20027;-46
2022/04/24 09:09:27;;;;;;;3.88;1.60;;;;;;;30.53;21.71;92994.53;5111525;28;19908;-45
2022/04/24 09:11:53;;;;;;;9.35;1.73;;;;;;;30.07;22.45;92986.03;5109627;28;20024;-41
2022/04/24 09:14:19;;;;;;;3.55;1.40;;;;;;;30.71;23.00;92981.19;5095572;28;20573;-45
2022/04/24 09:16:49;;;;;;;3.38;1.52;;;;;;;32.23;20.07;92968.34;5087241;28;20043;-43
2022/04/24 09:19:25;;;;;;;2.70;1.38;;;;;;;32.34;20.06;92981.22;5089150;28;20441;-42
2022/04/24 09:21:53;;;;;;;6.90;1.52;;;;;;;31.90;18.91;92975.94;5089775;28;20036;-46
2022/04/24 09:24:19;;;;;;;2.85;1.20;;;;;;;32.01;20.70;92968.91;5090644;28;20063;-47
2022/04/24 09:26:57;;;;;;;3.65;1.20;;;;;;;32.80;18.78;92976.47;5091116;28;20020;-44
2022/04/24 09:29:22;;;;;;;3.03;1.30;;;;;;;32.16;18.63;92964.72;5095255;28;20030;-44
2022/04/24 09:31:49;;;;;;;8.60;2.25;;;;;;;31.67;20.57;92968.63;5111408;28;20028;-42
2022/04/24 09:34:19;;;;;;;3.70;1.48;;;;;;;31.68;19.06;92975.78;5110648;28;20413;-45
2022/04/24 09:36:46;;;;;;;2.22;1.20;;;;;;;31.33;19.22;92969.75;5111238;28;20031;-45
2022/04/24 09:39:12;;;;;;;4.57;2.10;;;;;;;31.48;20.78;92967.03;5111084;28;20019;-44
2022/04/24 09:41:39;;;;;;;3.85;1.25;;;;;;;31.50;19.61;92959.22;5111430;28;20023;-47
2022/04/24 09:44:15;;;;;;;7.32;1.42;;;;;;;31.56;19.52;92955.69;5111302;28;20420;-43
2022/04/24 09:46:41;;;;;;;2.20;1.20;;;;;;;30.22;19.83;92952.78;5111281;28;20043;-43
2022/04/24 09:49:10;;;;;;;9.82;2.45;;;;;;;29.58;21.05;92952.56;5110928;28;20031;-44
2022/04/24 09:51:40;;;;;;;5.85;1.52;;;;;;;29.37;21.44;92974.25;5110941;28;20031;-44
2022/04/24 09:54:06;;;;;;;4.28;1.52;;;;;;;29.16;20.79;92953.31;5110881;28;20554;-45
2022/04/24 09:56:32;;;;;;;2.60;1.25;;;;;;;29.43;20.56;92951.63;5111028;28;20023;-45
2022/04/24 09:58:58;;;;;;;6.97;1.90;;;;;;;30.25;20.83;92954.25;5111023;28;20025;-46
2022/04/24 10:01:25;;;;;;;3.67;1.15;;;;;;;30.13;21.03;92932.00;5110815;28;20411;-47
2022/04/24 10:03:52;;;;;;;3.90;1.40;;;;;;;29.78;19.61;92935.78;5110911;28;20030;-42
2022/04/24 10:06:17;;;;;;;5.40;1.40;;;;;;;29.55;21.00;92936.84;5105935;28;20520;-47
2022/04/24 10:08:43;;;;;;;7.13;1.55;;;;;;;30.25;20.87;92943.59;5090514;28;20039;-43
2022/04/24 10:11:08;;;;;;;3.58;1.30;;;;;;;31.33;21.58;92932.69;5090303;28;20413;-42
2022/04/24 10:13:40;;;;;;;6.78;1.40;;;;;;;31.15;19.90;92929.66;5097747;28;20469;-41
2022/04/24 10:16:08;;;;;;;2.72;1.17;;;;;;;31.27;19.22;92924.03;5109216;28;20052;-41
2022/04/24 10:18:54;;;;;;;5.20;1.45;;;;;;;30.56;20.15;92930.44;5110463;28;20032;-43
2022/04/24 10:21:52;;;;;;;7.30;1.58;;;;;;;29.86;20.12;92930.25;5110584;28;20122;-44
2022/04/24 10:24:18;;;;;;;7.72;1.90;;;;;;;30.48;20.14;92927.50;5110472;28;20020;-44
2022/04/24 10:26:59;;;;;;;6.40;1.95;;;;;;;30.38;20.18;92916.00;5109321;28;20030;-41
2022/04/24 10:29:25;;;;;;;6.45;1.50;;;;;;;30.73;21.28;92927.06;5110414;28;20040;-43
2022/04/24 10:31:51;;;;;;;6.05;1.38;;;;;;;30.98;19.20;92922.38;5109241;28;20163;-43
2022/04/24 10:34:19;;;;;;;4.75;1.45;;;;;;;29.83;19.99;92914.53;5110457;28;20031;-44
2022/04/24 10:36:59;;;;;;;6.05;2.20;;;;;;;29.29;22.10;92928.63;5110209;28;20020;-43
2022/04/24 10:39:29;;;;;;;5.63;1.90;;;;;;;29.92;22.31;92921.78;5108469;28;20523;-44
2022/04/24 10:42:00;;;;;;;3.45;1.90;;;;;;;30.16;21.80;92913.56;5108964;28;20027;-43
2022/04/24 10:44:27;;;;;;;6.03;2.03;;;;;;;29.33;22.17;92913.75;5109417;28;20027;-47
2022/04/24 10:46:57;;;;;;;8.57;4.47;;;;;;;28.48;23.38;92917.91;5111622;28;20031;-42
2022/04/24 10:49:25;;;;;;;6.10;2.78;;;;;;;28.41;22.82;92913.53;5113587;28;20110;-42
2022/04/24 10:51:59;;;;;;;3.13;1.60;;;;;;;27.64;25.08;92911.16;5114013;28;20550;-44
2022/04/24 10:54:38;;;;;;;7.20;1.90;;;;;;;27.45;25.28;92904.38;5114114;28;20032;-42
2022/04/24 10:57:21;;;;;;;6.68;1.58;;;;;;;27.36;25.65;92911.25;5114451;28;20416;-41
2022/04/24 10:59:52;;;;;;;8.52;1.60;;;;;;;27.50;25.76;92914.44;5114667;28;20031;-45
2022/04/24 11:02:22;;;;;;;4.45;1.55;;;;;;;26.99;25.59;92889.06;5111487;28;20051;-42
2022/04/24 11:04:59;;;;;;;4.18;1.90;;;;;;;27.07;25.38;92908.41;5093755;28;20521;-47
2022/04/24 11:07:25;;;;;;;6.93;3.58;;;;;;;27.10;26.74;92902.09;5092946;28;20039;-44
2022/04/24 11:10:00;;;;;;;2.00;1.42;;;;;;;27.07;26.15;92897.78;5093667;28;20414;-46
2022/04/24 11:12:30;;;;;;;7.40;2.15;;;;;;;27.37;24.84;92892.84;5093956;28;20051;-41
2022/04/24 11:15:01;;;;;;;16.05;4.95;;;;;;;27.83;26.03;92886.75;5110621;28;20482;-43
2022/04/24 11:17:27;;;;;;;3.58;2.03;;;;;;;27.53;25.66;92878.31;5113853;28;20034;-46
2022/04/24 11:19:59;;;;;;;5.60;1.92;;;;;;;28.04;25.00;92875.19;5113865;28;20137;-45
2022/04/24 11:22:25;;;;;;;6.45;2.35;;;;;;;28.79;26.73;92891.53;5113725;28;20023;-46
2022/04/24 11:24:55;;;;;;;5.43;1.88;;;;;;;29.10;24.39;92890.63;5113656;28;20035;-42
2022/04/24 11:27:25;;;;;;;4.43;1.67;;;;;;;28.26;23.67;92881.28;5113782;28;20065;-43
2022/04/24 11:29:50;;;;;;;5.10;1.77;;;;;;;27.68;25.24;92877.22;5113663;28;20107;-46
2022/04/24 11:32:17;;;;;;;8.48;3.30;;;;;;;27.25;25.90;92858.53;5113574;28;20110;-43